createdAt,value
2018-06-15T00:00:54.032Z,100712.98
2018-06-15T00:03:22.917Z,100712.16
2018-06-15T00:05:51.165Z,100717.67
2018-06-15T00:08:19.388Z,100720.69
2018-06-15T00:10:48.235Z,100728.11
2018-06-15T00:13:16.947Z,100724.00
2018-06-15T00:15:45.177Z,100719.36
2018-06-15T00:18:14.729Z,100722.92
2018-06-15T00:20:43.092Z,100735.02
2018-06-15T00:23:11.977Z,100746.03
2018-06-15T00:25:40.897Z,100742.19
2018-06-15T00:28:10.259Z,100734.30
2018-06-15T00:30:38.957Z,100731.83
2018-06-15T00:33:07.619Z,100732.94
2018-06-15T00:35:36.496Z,100733.50
2018-06-15T00:38:04.771Z,100734.02
2018-06-15T00:40:33.209Z,100741.43
2018-06-15T00:43:01.779Z,100748.58
2018-06-15T00:45:30.034Z,100754.35
2018-06-15T00:47:58.235Z,100755.73
2018-06-15T00:50:26.496Z,100759.86
2018-06-15T00:52:54.707Z,100751.63
2018-06-15T00:55:23.286Z,100759.04
2018-06-15T00:57:51.467Z,100762.03
2018-06-15T01:00:19.686Z,100759.03
2018-06-15T01:02:48.052Z,100763.70
2018-06-15T01:05:16.290Z,100771.11
2018-06-15T01:07:44.594Z,100768.90
2018-06-15T01:10:12.919Z,100761.79
2018-06-15T01:12:41.139Z,100766.45
2018-06-15T01:15:09.443Z,100769.73
2018-06-15T01:17:38.085Z,100768.65
2018-06-15T01:20:06.321Z,100774.95
2018-06-15T01:22:34.499Z,100774.66
2018-06-15T01:25:03.057Z,100783.44
2018-06-15T01:27:31.300Z,100788.92
2018-06-15T01:29:59.750Z,100781.78
2018-06-15T01:32:27.951Z,100788.92
2018-06-15T01:34:56.211Z,100789.48
2018-06-15T01:37:24.566Z,100792.74
2018-06-15T01:39:52.798Z,100792.48
2018-06-15T01:42:20.980Z,100792.19
2018-06-15T01:44:49.260Z,100785.89
2018-06-15T01:47:17.541Z,100787.55
2018-06-15T01:49:45.784Z,100787.81
2018-06-15T01:52:13.979Z,100780.70
2018-06-15T01:54:42.178Z,100786.19
2018-06-15T01:57:10.419Z,100785.34
2018-06-15T01:59:38.624Z,100782.89
2018-06-15T02:02:06.806Z,100784.26
2018-06-15T02:04:35.036Z,100780.41
2018-06-15T02:07:03.340Z,100782.59
2018-06-15T02:09:31.553Z,100781.52
2018-06-15T02:11:59.764Z,100780.41
2018-06-15T02:14:27.960Z,100782.89
2018-06-15T02:16:56.205Z,100779.33
2018-06-15T02:19:24.459Z,100782.63
2018-06-15T02:21:52.863Z,100781.52
2018-06-15T02:24:21.367Z,100783.70
2018-06-15T02:26:49.595Z,100783.70
2018-06-15T02:29:17.850Z,100782.33
2018-06-15T02:31:46.085Z,100783.15
2018-06-15T02:34:14.295Z,100784.52
2018-06-15T02:36:42.498Z,100784.81
2018-06-15T02:39:11.839Z,100788.38
2018-06-15T02:41:40.402Z,100793.85
2018-06-15T02:44:08.652Z,100800.96
2018-06-15T02:46:36.838Z,100802.33
2018-06-15T02:49:05.540Z,100803.44
2018-06-15T02:51:33.889Z,100800.14
2018-06-15T02:54:02.258Z,100804.80
2018-06-15T02:56:30.566Z,100811.91
2018-06-15T02:58:58.861Z,100805.33
2018-06-15T03:01:27.613Z,100806.98
2018-06-15T03:03:56.105Z,100813.02
2018-06-15T03:06:24.666Z,100812.73
2018-06-15T03:08:52.938Z,100816.29
2018-06-15T03:11:21.188Z,100813.84
2018-06-15T03:13:49.456Z,100822.05
2018-06-15T03:16:17.649Z,100820.13
2018-06-15T03:18:45.885Z,100821.74
2018-06-15T03:21:14.181Z,100824.74
2018-06-15T03:36:47.347Z,100819.55
2018-06-15T03:39:15.526Z,100830.75
2018-06-15T03:41:43.760Z,100827.20
2018-06-15T03:44:12.066Z,100828.58
2018-06-15T03:46:40.286Z,100825.84
2018-06-15T03:49:08.527Z,100828.84
2018-06-15T03:51:36.763Z,100830.22
2018-06-15T03:54:05.147Z,100832.96
2018-06-15T03:56:33.387Z,100831.89
2018-06-15T03:59:01.649Z,100833.01
2018-06-15T04:01:29.890Z,100834.65
2018-06-15T04:03:58.108Z,100837.69
2018-06-15T04:06:26.316Z,100836.58
2018-06-15T04:08:54.576Z,100838.20
2018-06-15T04:11:22.813Z,100836.03
2018-06-15T04:13:51.073Z,100837.44
2018-06-15T04:16:19.316Z,100837.70
2018-06-15T04:18:47.527Z,100837.44
2018-06-15T04:21:15.743Z,100841.00
2018-06-15T04:23:43.956Z,100841.27
2018-06-15T04:26:12.221Z,100842.62
2018-06-15T04:28:40.484Z,100845.92
2018-06-15T04:31:09.365Z,100846.48
2018-06-15T04:33:37.595Z,100853.38
2018-06-15T04:36:05.940Z,100852.26
2018-06-15T04:38:34.218Z,100852.00
2018-06-15T04:41:02.442Z,100854.17
2018-06-15T04:43:31.114Z,100851.17
2018-06-15T04:45:59.329Z,100853.09
2018-06-15T04:48:27.568Z,100852.00
2018-06-15T04:50:55.792Z,100854.48
2018-06-15T04:53:23.973Z,100850.35
2018-06-15T04:55:52.171Z,100855.58
2018-06-15T04:58:20.440Z,100845.69
2018-06-15T05:00:48.985Z,100856.97
2018-06-15T05:03:17.222Z,100854.73
2018-06-15T05:05:46.040Z,100853.66
2018-06-15T05:08:14.253Z,100861.33
2018-06-15T05:10:42.521Z,100853.36
2018-06-15T05:13:11.162Z,100853.12
2018-06-15T05:15:39.370Z,100854.75
2018-06-15T05:18:07.558Z,100859.16
2018-06-15T05:20:35.970Z,100858.32
2018-06-15T05:23:10.784Z,100862.43
2018-06-15T05:25:39.015Z,100864.91
2018-06-15T05:28:07.235Z,100868.73
2018-06-15T05:30:35.450Z,100868.48
2018-06-15T05:33:03.672Z,100870.92
2018-06-15T05:35:32.037Z,100875.04
2018-06-15T05:38:00.331Z,100870.33
2018-06-15T05:40:28.565Z,100868.64
2018-06-15T05:42:56.761Z,100875.49
2018-06-15T05:45:25.035Z,100873.52
2018-06-15T05:47:53.245Z,100879.29
2018-06-15T05:50:21.492Z,100877.95
2018-06-15T05:52:49.758Z,100886.17
2018-06-15T05:55:18.014Z,100880.66
2018-06-15T05:57:46.259Z,100883.66
2018-06-15T06:00:14.551Z,100882.05
2018-06-15T06:02:42.795Z,100890.06
2018-06-15T06:05:11.066Z,100893.94
2018-06-15T06:07:39.350Z,100888.73
2018-06-15T06:10:07.645Z,100896.16
2018-06-15T06:12:35.867Z,100896.71
2018-06-15T06:15:04.116Z,100890.95
2018-06-15T06:17:32.452Z,100896.69
2018-06-15T06:20:00.778Z,100893.92
2018-06-15T06:22:32.154Z,100890.60
2018-06-15T06:25:00.416Z,100899.65
2018-06-15T06:27:28.641Z,100901.27
2018-06-15T06:29:56.870Z,100903.48
2018-06-15T06:32:25.199Z,100904.30
2018-06-15T06:34:53.456Z,100909.22
2018-06-15T06:37:21.673Z,100918.29
2018-06-15T06:39:49.917Z,100924.06
2018-06-15T06:42:18.280Z,100927.58
2018-06-15T06:44:46.525Z,100929.27
2018-06-15T06:47:14.809Z,100930.94
2018-06-15T06:49:42.997Z,100931.18
2018-06-15T06:52:11.275Z,100936.13
2018-06-15T06:54:39.541Z,100934.11
2018-06-15T06:57:08.013Z,100935.28
2018-06-15T06:59:36.263Z,100935.25
2018-06-15T07:02:04.524Z,100932.70
2018-06-15T07:04:32.797Z,100940.30
2018-06-15T07:07:01.057Z,100940.59
2018-06-15T07:09:29.276Z,100945.49
2018-06-15T07:11:57.481Z,100943.78
2018-06-15T07:14:25.751Z,100949.74
2018-06-15T07:16:54.214Z,100951.94
2018-06-15T07:19:22.594Z,100945.93
2018-06-15T07:21:50.809Z,100960.70
2018-06-15T07:24:19.069Z,100956.56
2018-06-15T07:26:47.298Z,100956.34
2018-06-15T07:29:15.522Z,100958.39
2018-06-15T07:31:43.774Z,100957.80
2018-06-15T07:34:11.964Z,100965.14
2018-06-15T07:36:40.338Z,100974.43
2018-06-15T07:39:09.893Z,100967.80
2018-06-15T07:41:38.096Z,100977.30
2018-06-15T07:44:06.310Z,100971.92
2018-06-15T07:46:34.543Z,100966.16
2018-06-15T07:49:02.854Z,100974.47
2018-06-15T07:51:31.061Z,100968.67
2018-06-15T07:53:59.248Z,100970.75
2018-06-15T07:56:27.525Z,100976.14
2018-06-15T07:58:55.797Z,100979.58
2018-06-15T08:01:24.042Z,100980.73
2018-06-15T08:04:02.455Z,100982.67
2018-06-15T08:06:37.544Z,100981.23
2018-06-15T08:09:07.807Z,100981.61
2018-06-15T08:11:36.597Z,100982.42
2018-06-15T08:14:04.904Z,100985.16
2018-06-15T08:16:33.526Z,100985.73
2018-06-15T08:19:01.773Z,100991.95
2018-06-15T08:21:30.163Z,100983.62
2018-06-15T08:23:58.501Z,100986.33
2018-06-15T08:26:26.717Z,100989.16
2018-06-15T08:28:54.960Z,100991.16
2018-06-15T08:31:23.139Z,100995.62
2018-06-15T08:33:51.374Z,100985.91
2018-06-15T08:36:19.701Z,100989.22
2018-06-15T08:38:48.053Z,100988.30
2018-06-15T08:41:16.221Z,100989.50
2018-06-15T08:43:44.868Z,100993.31
2018-06-15T08:46:13.110Z,100994.25
2018-06-15T08:48:41.320Z,100995.06
2018-06-15T08:51:09.538Z,100990.78
2018-06-15T08:53:37.801Z,100989.13
2018-06-15T08:56:06.056Z,100991.45
2018-06-15T08:58:34.369Z,100993.28
2018-06-15T09:01:02.605Z,100997.64
2018-06-15T09:03:30.816Z,100989.88
2018-06-15T09:05:59.017Z,100992.94
2018-06-15T09:08:27.192Z,100998.53
2018-06-15T09:10:55.428Z,101001.03
2018-06-15T09:13:23.687Z,100996.41
2018-06-15T09:15:51.915Z,100996.21
2018-06-15T09:18:20.149Z,100991.07
2018-06-15T09:20:48.376Z,100995.53
2018-06-15T09:23:16.602Z,100996.81
2018-06-15T09:25:44.832Z,100994.92
2018-06-15T09:28:13.023Z,100997.55
2018-06-15T09:30:41.212Z,100993.56
2018-06-15T09:33:09.443Z,100997.17
2018-06-15T09:35:37.701Z,101000.76
2018-06-15T09:38:06.109Z,100993.13
2018-06-15T09:40:34.325Z,100990.93
2018-06-15T09:43:02.868Z,100991.21
2018-06-15T09:45:31.090Z,100991.42
2018-06-15T09:47:59.353Z,100994.92
2018-06-15T09:50:27.573Z,100995.09
2018-06-15T09:52:55.944Z,101001.69
2018-06-15T09:55:24.152Z,100996.21
2018-06-15T09:57:52.682Z,101000.23
2018-06-15T10:00:26.235Z,100992.02
2018-06-15T10:02:54.476Z,100999.11
2018-06-15T10:05:22.935Z,100996.91
2018-06-15T10:07:57.920Z,100992.07
2018-06-15T10:10:26.129Z,100996.44
2018-06-15T10:12:54.328Z,100995.88
2018-06-15T10:15:22.588Z,100999.14
2018-06-15T10:17:50.779Z,101007.17
2018-06-15T10:20:19.100Z,100998.92
2018-06-15T10:22:47.434Z,100997.02
2018-06-15T10:25:15.650Z,100999.21
2018-06-15T10:27:43.895Z,100998.73
2018-06-15T10:30:12.150Z,101004.45
2018-06-15T10:32:40.399Z,100998.65
2018-06-15T10:35:08.590Z,101004.72
2018-06-15T10:37:36.872Z,101003.09
2018-06-15T10:40:05.133Z,101002.06
2018-06-15T10:42:33.334Z,100996.86
2018-06-15T10:45:01.594Z,101000.44
2018-06-15T10:47:29.786Z,101003.57
2018-06-15T10:49:57.967Z,101000.84
2018-06-15T10:52:26.153Z,101002.63
2018-06-15T10:54:54.736Z,101001.29
2018-06-15T10:57:23.051Z,100992.48
2018-06-15T10:59:51.322Z,100990.86
2018-06-15T11:02:19.581Z,100991.24
2018-06-15T11:04:47.680Z,100987.27
2018-06-15T11:07:15.957Z,100990.20
2018-06-15T11:09:44.171Z,100976.31
2018-06-15T11:12:12.385Z,100986.06
2018-06-15T11:14:40.598Z,100989.57
2018-06-15T11:17:08.788Z,100987.72
2018-06-15T11:19:37.001Z,100983.83
2018-06-15T11:22:05.224Z,100987.20
2018-06-15T11:24:33.508Z,100988.45
2018-06-15T11:27:01.677Z,100985.40
2018-06-15T11:29:29.885Z,100986.63
2018-06-15T11:31:58.117Z,100986.95
2018-06-15T11:34:26.372Z,100983.02
2018-06-15T11:36:54.627Z,100984.84
2018-06-15T11:39:22.841Z,100978.09
2018-06-15T11:41:51.049Z,100979.63
2018-06-15T11:44:19.296Z,100981.20
2018-06-15T11:46:47.564Z,100978.53
2018-06-15T11:49:15.902Z,100980.11
2018-06-15T11:51:44.109Z,100983.44
2018-06-15T11:54:12.312Z,100975.82
2018-06-15T11:56:40.522Z,100981.01
2018-06-15T11:59:08.758Z,100975.09
2018-06-15T12:01:37.027Z,100976.91
2018-06-15T12:04:05.179Z,100974.23
2018-06-15T12:06:33.474Z,100979.29
2018-06-15T12:09:01.765Z,100976.34
2018-06-15T12:11:30.042Z,100974.59
2018-06-15T12:13:58.290Z,100978.91
2018-06-15T12:16:26.566Z,100981.47
2018-06-15T12:18:54.866Z,100972.41
2018-06-15T12:21:23.108Z,100978.25
2018-06-15T12:23:51.273Z,100974.88
2018-06-15T12:26:19.493Z,100976.62
2018-06-15T12:28:47.761Z,100974.53
2018-06-15T12:31:15.979Z,100980.53
2018-06-15T12:33:44.209Z,100977.53
2018-06-15T12:36:12.443Z,100975.72
2018-06-15T12:38:40.688Z,100973.25
2018-06-15T12:41:08.879Z,100977.19
2018-06-15T12:43:38.192Z,100978.86
2018-06-15T12:46:06.707Z,100976.87
2018-06-15T12:48:34.957Z,100982.24
2018-06-15T12:51:03.183Z,100980.98
2018-06-15T12:53:31.455Z,100976.48
2018-06-15T12:55:59.685Z,100974.97
2018-06-15T12:58:27.909Z,100978.80
2018-06-15T13:00:56.110Z,100979.24
2018-06-15T13:03:24.281Z,100980.05
2018-06-15T13:05:52.492Z,100984.48
2018-06-15T13:08:20.896Z,100980.55
2018-06-15T13:10:49.056Z,100975.96
2018-06-15T13:13:17.321Z,100983.77
2018-06-15T13:15:45.728Z,100989.77
2018-06-15T13:18:13.950Z,100987.42
2018-06-15T13:20:42.368Z,100988.84
2018-06-15T13:23:10.609Z,100982.63
2018-06-15T13:25:38.789Z,100977.13
2018-06-15T13:28:07.009Z,100981.59
2018-06-15T13:30:35.206Z,100977.19
2018-06-15T13:33:03.428Z,100983.77
2018-06-15T13:35:31.659Z,100988.03
2018-06-15T13:37:59.885Z,100981.20
2018-06-15T13:40:28.095Z,100978.28
2018-06-15T13:42:56.265Z,100985.53
2018-06-15T13:45:24.625Z,100981.68
2018-06-15T13:47:52.875Z,100980.75
2018-06-15T13:50:21.416Z,100980.56
2018-06-15T13:52:49.670Z,100976.42
2018-06-15T13:55:17.904Z,100978.12
2018-06-15T13:57:52.525Z,100966.09
2018-06-15T14:00:20.805Z,100966.59
2018-06-15T14:02:49.012Z,100966.03
2018-06-15T14:05:17.694Z,100965.11
2018-06-15T14:07:45.917Z,100961.52
2018-06-15T14:10:14.202Z,100964.66
2018-06-15T14:12:42.472Z,100956.97
2018-06-15T14:15:10.684Z,100958.61
2018-06-15T14:17:38.984Z,100963.81
2018-06-15T14:20:07.224Z,100963.44
2018-06-15T14:22:35.421Z,100958.12
2018-06-15T14:25:06.786Z,100960.38
2018-06-15T14:27:35.029Z,100960.06
2018-06-15T14:30:03.289Z,100959.84
2018-06-15T14:32:31.472Z,100960.09
2018-06-15T14:34:59.726Z,100964.75
2018-06-15T14:37:28.804Z,100961.74
2018-06-15T14:39:57.266Z,100962.38
2018-06-15T14:42:25.572Z,100970.67
2018-06-15T14:44:53.832Z,100963.91
2018-06-15T14:47:22.347Z,100967.81
2018-06-15T14:49:50.564Z,100959.00
2018-06-15T14:52:18.811Z,100955.16
2018-06-15T14:54:46.999Z,100960.08
2018-06-15T14:57:15.323Z,100956.70
2018-06-15T14:59:43.526Z,100957.41
2018-06-15T15:02:11.856Z,100956.81
2018-06-15T15:04:40.077Z,100954.56
2018-06-15T15:07:08.548Z,100952.09
2018-06-15T15:09:36.797Z,100948.08
2018-06-15T15:12:05.024Z,100952.94
2018-06-15T15:14:33.218Z,100957.77
2018-06-15T15:17:01.451Z,100950.88
2018-06-15T15:19:29.677Z,100947.30
2018-06-15T15:21:57.974Z,100953.26
2018-06-15T15:24:26.182Z,100948.70
2018-06-15T15:26:54.401Z,100943.68
2018-06-15T15:29:22.763Z,100941.44
2018-06-15T15:31:51.032Z,100949.16
2018-06-15T15:34:19.263Z,100947.67
2018-06-15T15:36:47.488Z,100948.45
2018-06-15T15:39:15.672Z,100947.92
2018-06-15T15:41:43.921Z,100947.07
2018-06-15T15:44:12.092Z,100956.18
2018-06-15T15:46:40.342Z,100949.02
2018-06-15T15:49:08.542Z,100955.20
2018-06-15T15:51:36.718Z,100955.73
2018-06-15T15:54:04.982Z,100953.62
2018-06-15T15:56:33.222Z,100951.56
2018-06-15T15:59:01.413Z,100954.38
2018-06-15T16:01:29.684Z,100955.77
2018-06-15T16:03:57.895Z,100956.70
2018-06-15T16:06:26.136Z,100952.09
2018-06-15T16:08:54.317Z,100949.42
2018-06-15T16:11:22.530Z,100953.52
2018-06-15T16:13:50.736Z,100953.24
2018-06-15T16:16:18.960Z,100952.52
2018-06-15T16:18:47.206Z,100950.48
2018-06-15T16:21:15.479Z,100950.01
2018-06-15T16:23:43.643Z,100954.95
2018-06-15T16:26:11.890Z,100956.63
2018-06-15T16:28:40.148Z,100950.58
2018-06-15T16:31:08.379Z,100953.66
2018-06-15T16:33:37.120Z,100957.58
2018-06-15T16:36:05.480Z,100955.69
2018-06-15T16:38:33.668Z,100945.02
2018-06-15T16:41:01.969Z,100947.44
2018-06-15T16:43:30.221Z,100947.62
2018-06-15T16:45:58.760Z,100946.20
2018-06-15T16:48:27.104Z,100943.14
2018-06-15T16:50:55.337Z,100949.68
2018-06-15T16:53:23.528Z,100952.77
2018-06-15T16:55:51.737Z,100953.06
2018-06-15T16:58:19.939Z,100954.73
2018-06-15T17:00:48.169Z,100952.67
2018-06-15T17:03:16.445Z,100953.05
2018-06-15T17:05:44.681Z,100953.94
2018-06-15T17:08:12.995Z,100950.70
2018-06-15T17:10:41.249Z,100953.26
2018-06-15T17:13:09.478Z,100952.44
2018-06-15T17:15:37.704Z,100953.73
2018-06-15T17:18:06.234Z,100955.16
2018-06-15T17:20:34.446Z,100953.55
2018-06-15T17:23:02.841Z,100954.40
2018-06-15T17:25:32.049Z,100960.77
2018-06-15T17:28:00.504Z,100956.27
2018-06-15T17:30:28.829Z,100959.83
2018-06-15T17:32:57.084Z,100969.17
2018-06-15T17:35:25.329Z,100968.36
2018-06-15T17:37:53.618Z,100966.94
2018-06-15T17:40:21.817Z,100963.65
2018-06-15T17:42:50.133Z,100966.94
2018-06-15T17:45:18.492Z,100966.69
2018-06-15T17:47:46.686Z,100966.13
2018-06-15T17:50:14.905Z,100966.37
2018-06-15T17:52:43.124Z,100963.08
2018-06-15T17:55:11.309Z,100960.08
2018-06-15T17:57:39.848Z,100963.48
2018-06-15T18:00:08.129Z,100959.88
2018-06-15T18:02:36.776Z,100958.78
2018-06-15T18:05:05.162Z,100959.83
2018-06-15T18:07:33.812Z,100958.94
2018-06-15T18:10:02.024Z,100963.08
2018-06-15T18:12:30.196Z,100957.02
2018-06-15T18:14:58.488Z,100967.59
2018-06-15T18:17:26.757Z,100970.15
2018-06-15T18:19:54.962Z,100964.38
2018-06-15T18:22:23.250Z,100960.56
2018-06-15T18:24:51.435Z,100966.61
2018-06-15T18:27:26.287Z,100962.16
2018-06-15T18:29:54.493Z,100957.73
2018-06-15T18:32:22.759Z,100966.53
2018-06-15T18:34:50.989Z,100963.00
2018-06-15T18:37:19.246Z,100962.23
2018-06-15T18:39:47.456Z,100958.70
2018-06-15T18:42:15.630Z,100960.97
2018-06-15T18:44:43.857Z,100965.16
2018-06-15T18:47:12.187Z,100959.06
2018-06-15T18:49:40.427Z,100956.38
2018-06-15T18:52:08.754Z,100955.53
2018-06-15T18:54:37.158Z,100955.25
2018-06-15T18:59:32.735Z,100958.38
2018-06-15T19:02:00.937Z,100963.89
2018-06-15T19:04:29.130Z,100961.45
2018-06-15T19:06:57.321Z,100962.31
2018-06-15T19:09:25.480Z,100966.77
2018-06-15T19:11:53.684Z,100963.20
2018-06-15T19:14:22.008Z,100968.75
2018-06-15T19:16:50.312Z,100966.59
2018-06-15T19:19:18.562Z,100972.15
2018-06-15T19:21:47.074Z,100970.84
2018-06-15T19:24:15.322Z,100975.30
2018-06-15T19:26:43.689Z,100972.58
2018-06-15T19:29:11.948Z,100978.44
2018-06-15T19:31:40.177Z,100980.67
2018-06-15T19:34:08.371Z,100982.05
2018-06-15T19:36:36.585Z,100983.70
2018-06-15T19:39:07.164Z,100980.95
2018-06-15T19:41:35.705Z,100981.17
2018-06-15T19:44:03.936Z,100985.05
2018-06-15T19:46:32.289Z,100985.65
2018-06-15T19:49:00.611Z,100988.97
2018-06-15T19:51:29.123Z,100993.70
2018-06-15T19:53:57.349Z,100993.77
2018-06-15T19:56:25.537Z,100992.17
2018-06-15T19:58:53.792Z,100988.31
2018-06-15T20:01:22.133Z,100994.36
2018-06-15T20:03:50.367Z,100990.51
2018-06-15T20:06:18.952Z,100991.61
2018-06-15T20:08:47.163Z,100989.41
2018-06-15T20:11:15.465Z,100985.00
2018-06-15T20:13:43.667Z,100993.17
2018-06-15T20:16:11.853Z,100989.03
2018-06-15T20:18:40.427Z,100989.03
2018-06-15T20:21:09.056Z,100987.16
2018-06-15T20:23:37.303Z,100986.88
2018-06-15T20:26:05.914Z,100991.52
2018-06-15T20:28:34.151Z,100988.22
2018-06-15T20:31:02.460Z,100986.41
2018-06-15T20:33:30.653Z,100991.23
2018-06-15T20:35:58.849Z,100989.87
2018-06-15T20:38:27.097Z,100987.73
2018-06-15T20:40:55.348Z,100996.28
2018-06-15T20:43:23.563Z,100995.70
2018-06-15T20:45:51.719Z,101000.34
2018-06-15T20:48:19.948Z,100999.47
2018-06-15T20:50:48.082Z,101001.66
2018-06-15T20:53:16.297Z,101002.47
2018-06-15T20:55:44.541Z,101006.89
2018-06-15T20:58:12.890Z,100996.14
2018-06-15T21:00:41.107Z,101001.44
2018-06-15T21:03:09.365Z,101002.00
2018-06-15T21:05:37.644Z,101006.95
2018-06-15T21:08:06.180Z,100998.42
2018-06-15T21:10:34.625Z,101001.74
2018-06-15T21:13:02.882Z,100995.72
2018-06-15T21:15:31.128Z,100994.34
2018-06-15T21:17:59.512Z,101002.87
2018-06-15T21:20:27.785Z,100999.86
2018-06-15T21:22:55.983Z,100999.83
2018-06-15T21:25:24.225Z,101000.98
2018-06-15T21:27:52.465Z,100999.55
2018-06-15T21:30:20.744Z,101005.56
2018-06-15T21:32:49.348Z,101002.56
2018-06-15T21:35:17.555Z,101005.31
2018-06-15T21:37:45.807Z,101007.59
2018-06-15T21:40:13.958Z,101006.30
2018-06-15T21:42:42.203Z,100995.80
2018-06-15T21:45:10.445Z,100998.05
2018-06-15T21:47:38.651Z,101001.37
2018-06-15T21:50:07.022Z,101001.11
2018-06-15T21:52:35.299Z,100999.45
2018-06-15T21:55:03.547Z,101006.09
2018-06-15T21:57:31.757Z,100999.73
2018-06-15T22:00:00.379Z,101004.15
2018-06-15T22:02:28.936Z,101003.87
2018-06-15T22:04:57.292Z,101005.25
2018-06-15T22:07:25.469Z,100993.95
2018-06-15T22:09:53.890Z,100995.91
2018-06-15T22:12:22.123Z,101000.93
2018-06-15T22:14:50.424Z,100996.87
2018-06-15T22:17:18.607Z,100996.33
2018-06-15T22:19:46.877Z,101001.03
2018-06-15T22:22:15.167Z,101001.61
2018-06-15T22:24:43.430Z,100995.87
2018-06-15T22:27:11.659Z,101001.14
2018-06-15T22:29:39.915Z,100997.52
2018-06-15T22:32:08.176Z,101009.36
2018-06-15T22:34:36.378Z,101004.92
2018-06-15T22:37:04.637Z,101010.97
2018-06-15T22:39:32.808Z,101009.61
2018-06-15T22:42:01.086Z,101006.86
2018-06-15T22:44:29.291Z,101010.76
2018-06-15T22:46:57.485Z,101011.31
2018-06-15T22:49:25.744Z,101008.89
2018-06-15T22:51:53.946Z,101010.28
2018-06-15T22:54:22.162Z,101007.55
2018-06-15T22:56:50.453Z,101008.92
2018-06-15T22:59:18.625Z,101007.55
2018-06-15T23:01:46.910Z,101006.69
2018-06-15T23:04:15.240Z,101007.83
2018-06-15T23:06:43.461Z,101007.03
2018-06-15T23:09:12.429Z,101016.36
2018-06-15T23:11:41.236Z,101012.80
2018-06-15T23:14:09.624Z,101017.80
2018-06-15T23:16:37.818Z,101017.05
2018-06-15T23:19:06.126Z,101012.09
2018-06-15T23:21:34.426Z,101018.17
2018-06-15T23:24:02.608Z,101014.58
2018-06-15T23:26:30.843Z,101015.69
2018-06-15T23:28:59.047Z,101006.92
2018-06-15T23:31:27.266Z,101011.30
2018-06-15T23:33:55.576Z,101007.45
2018-06-15T23:36:23.831Z,101001.42
2018-06-15T23:38:52.065Z,101000.05
2018-06-15T23:41:20.249Z,100999.23
2018-06-15T23:43:48.455Z,101007.77
2018-06-15T23:46:16.677Z,101007.77
2018-06-15T23:48:44.918Z,101010.00
2018-06-15T23:51:13.176Z,101008.32
2018-06-15T23:53:41.405Z,101015.18
2018-06-15T23:56:09.635Z,101006.41
2018-06-15T23:58:37.867Z,101010.02
